Time;durP1;ratioP1;P1;durP2;ratioP2;P2;SDS_P1;SDS_P2;PMS_P1;PMS_P2;Temp;Humidity;BMP_temperature;BMP_pressure;BME280_temperature;BME280_humidity;BME280_pressure;Samples;Min_cycle;Max_cycle;Signal;HPM_P1;HPM_P2
2022/01/26 09:52:15;;;;;;;33.17;19.08;;;5.30;88.60;;;;;;5104678;27;1302436;-48
2022/01/26 09:54:42;;;;;;;30.00;17.63;;;5.40;88.90;;;;;;5130836;28;20071;-48
2022/01/26 09:57:25;;;;;;;32.20;18.02;;;5.40;88.50;;;;;;5125183;28;20080;-49
2022/01/26 09:59:52;;;;;;;28.77;18.15;;;5.50;87.20;;;;;;5115521;27;20043;-49
2022/01/26 10:02:19;;;;;;;24.38;16.98;;;5.60;86.60;;;;;;5110913;28;20040;-51
2022/01/26 10:04:46;;;;;;;28.38;18.38;;;5.70;86.40;;;;;;5116873;27;20040;-51
2022/01/26 10:07:25;;;;;;;30.77;18.70;;;5.80;86.10;;;;;;5118931;28;20042;-48
2022/01/26 10:17:54;;;;;;;32.45;17.25;;;6.10;85.20;;;;;;5110757;28;20437;-50
2022/01/26 10:20:20;;;;;;;31.73;18.48;;;6.10;84.80;;;;;;5110531;28;20513;-47
2022/01/26 10:22:50;;;;;;;30.70;17.95;;;6.20;84.30;;;;;;5110447;28;20044;-49
2022/01/26 10:25:17;;;;;;;31.45;19.00;;;6.20;84.50;;;;;;5112553;28;20046;-49
2022/01/26 10:28:04;;;;;;;29.05;18.50;;;6.30;84.00;;;;;;5110184;28;20040;-46
2022/01/26 10:30:31;;;;;;;31.40;19.80;;;6.30;83.70;;;;;;5110510;28;20044;-50
2022/01/26 10:32:57;;;;;;;28.15;18.85;;;6.40;83.90;;;;;;5110072;28;20040;-46
2022/01/26 10:35:24;;;;;;;29.77;18.83;;;6.40;83.20;;;;;;5110235;28;20038;-50
2022/01/26 10:37:51;;;;;;;28.67;18.50;;;6.40;83.90;;;;;;5110025;28;20505;-46
2022/01/26 10:40:21;;;;;;;27.40;18.08;;;6.50;83.10;;;;;;5120969;28;20042;-47
2022/01/26 10:42:48;;;;;;;30.48;19.48;;;6.50;83.40;;;;;;5129500;28;20114;-50
2022/01/26 10:45:19;;;;;;;28.55;19.17;;;6.50;83.60;;;;;;5122119;27;20039;-47
2022/01/26 10:47:47;;;;;;;30.17;18.83;;;6.60;83.20;;;;;;5109870;28;20044;-46
2022/01/26 10:53:01;;;;;;;28.65;17.65;;;6.80;82.30;;;;;;5122109;28;20069;-54
2022/01/26 10:55:28;;;;;;;27.55;16.92;;;6.80;81.50;;;;;;5129364;27;20039;-54
2022/01/26 10:57:55;;;;;;;32.63;17.10;;;6.80;81.40;;;;;;5129779;27;20043;-51
2022/01/26 11:00:22;;;;;;;23.65;16.30;;;6.90;81.40;;;;;;5129591;27;20047;-54
2022/01/26 11:02:50;;;;;;;28.55;16.75;;;6.90;80.50;;;;;;5106724;27;20040;-54
2022/01/26 11:05:19;;;;;;;25.38;15.52;;;6.90;79.90;;;;;;5114887;28;20046;-51
2022/01/26 11:07:46;;;;;;;26.00;16.27;;;7.00;79.90;;;;;;5096044;28;20579;-51
2022/01/26 11:10:13;;;;;;;26.52;15.02;;;7.00;80.40;;;;;;5103511;28;20528;-50
2022/01/26 11:12:39;;;;;;;21.95;14.52;;;7.00;79.20;;;;;;5115222;28;20032;-54
2022/01/26 11:15:09;;;;;;;26.23;14.45;;;7.00;80.00;;;;;;5102370;28;20041;-49
2022/01/26 11:17:37;;;;;;;23.80;14.32;;;6.90;79.90;;;;;;5115547;28;20410;-55
2022/01/26 11:20:04;;;;;;;24.00;15.45;;;6.90;79.20;;;;;;5115386;28;20051;-51
2022/01/26 11:22:32;;;;;;;31.45;16.65;;;6.90;79.80;;;;;;5115166;28;20360;-55
2022/01/26 11:24:59;;;;;;;23.95;15.85;;;6.90;79.60;;;;;;5115292;28;20363;-52
2022/01/26 11:27:26;;;;;;;28.08;15.88;;;6.90;80.10;;;;;;5107376;28;20042;-56
2022/01/26 11:29:55;;;;;;;26.02;15.05;;;7.00;79.70;;;;;;5095623;28;20106;-56
2022/01/26 11:32:33;;;;;;;30.10;16.33;;;7.00;79.40;;;;;;5095491;28;20071;-55
2022/01/26 11:35:00;;;;;;;25.08;17.13;;;7.00;80.00;;;;;;5095601;28;20047;-51
2022/01/26 11:37:27;;;;;;;23.80;15.20;;;7.00;79.10;;;;;;5095365;28;20043;-52
2022/01/26 11:45:12;;;;;;;25.05;14.98;;;7.10;79.70;;;;;;5095377;28;20484;-55
2022/01/26 11:47:39;;;;;;;27.17;15.48;;;7.10;80.10;;;;;;5094301;28;20040;-53
2022/01/26 11:50:06;;;;;;;25.27;15.57;;;7.20;79.90;;;;;;5095160;28;20039;-51
2022/01/26 11:52:38;;;;;;;31.38;17.08;;;7.20;79.00;;;;;;5103819;28;20056;-55
2022/01/26 11:55:07;;;;;;;29.30;16.65;;;7.10;78.70;;;;;;5108006;28;20501;-49
2022/01/26 11:57:33;;;;;;;33.38;16.58;;;7.20;79.60;;;;;;5106590;28;20039;-52
2022/01/26 12:00:03;;;;;;;25.63;16.08;;;7.20;79.90;;;;;;5095106;28;20074;-54
2022/01/26 12:02:39;;;;;;;23.25;14.95;;;7.30;80.20;;;;;;5107971;28;20505;-51
2022/01/26 12:05:08;;;;;;;28.95;15.15;;;7.40;79.70;;;;;;5106549;28;20067;-55
2022/01/26 12:07:35;;;;;;;21.52;12.05;;;7.40;79.10;;;;;;5097833;28;20035;-54
2022/01/26 12:10:04;;;;;;;23.38;13.48;;;7.40;77.90;;;;;;5099483;27;20040;-50
2022/01/26 12:12:31;;;;;;;24.73;12.70;;;7.40;78.80;;;;;;5114293;28;20046;-53
2022/01/26 12:14:57;;;;;;;22.23;13.13;;;7.30;78.20;;;;;;5113293;27;20067;-52
2022/01/26 12:17:28;;;;;;;20.63;12.32;;;7.40;78.70;;;;;;5114153;28;20131;-55
2022/01/26 12:20:08;;;;;;;21.38;12.65;;;7.40;78.10;;;;;;5114312;28;20141;-55
2022/01/26 12:34:16;;;;;;;20.05;10.80;;;7.50;77.60;;;;;;5114027;28;20039;-52
2022/01/26 12:36:56;;;;;;;17.73;11.32;;;7.50;76.90;;;;;;5094339;28;20040;-52
2022/01/26 12:41:16;;;;;;;17.95;11.23;;;7.60;77.30;;;;;;5107620;28;20036;-53
2022/01/26 12:42:10;;;;;;;19.08;11.00;;;7.60;76.60;;;;;;5113867;28;20059;-54
2022/01/26 12:44:37;;;;;;;19.60;10.88;;;7.60;77.30;;;;;;5112280;28;20036;-52
2022/01/26 12:47:04;;;;;;;15.05;9.05;;;7.70;76.30;;;;;;5112365;28;20050;-51
2022/01/26 12:49:31;;;;;;;20.73;9.07;;;7.70;76.30;;;;;;5113608;27;20403;-53
2022/01/26 12:51:58;;;;;;;18.90;9.88;;;7.80;76.40;;;;;;5112030;28;20102;-55
2022/01/26 12:54:26;;;;;;;19.02;9.93;;;7.80;76.00;;;;;;5113481;28;20048;-51
2022/01/26 12:56:53;;;;;;;17.75;9.88;;;7.80;76.30;;;;;;5113460;28;20130;-51
2022/01/26 12:59:20;;;;;;;17.75;9.57;;;7.80;75.80;;;;;;5113367;28;20043;-49
2022/01/26 13:01:46;;;;;;;18.67;9.23;;;7.90;75.80;;;;;;5113305;28;20036;-53
2022/01/26 13:04:14;;;;;;;20.00;9.30;;;7.90;75.60;;;;;;5113089;28;20090;-49
2022/01/26 13:06:40;;;;;;;21.40;8.50;;;7.90;76.10;;;;;;5112164;28;20130;-49
2022/01/26 13:09:07;;;;;;;16.98;8.00;;;7.90;75.00;;;;;;5098018;28;20036;-56
2022/01/26 13:11:34;;;;;;;14.77;9.05;;;7.90;74.60;;;;;;5093758;28;20091;-52
2022/01/26 13:14:02;;;;;;;14.57;7.50;;;7.90;74.60;;;;;;5092606;28;20139;-50
2022/01/26 13:16:35;;;;;;;17.58;9.43;;;7.90;74.80;;;;;;5093876;28;20048;-53
2022/01/26 13:19:19;;;;;;;19.75;8.60;;;7.90;74.80;;;;;;5110113;28;20250;-49
2022/01/26 13:24:23;;;;;;;17.02;8.77;;;8.00;74.90;;;;;;5112261;28;20042;-56
2022/01/26 13:26:57;;;;;;;21.75;9.15;;;7.90;75.00;;;;;;5093450;28;20062;-54
2022/01/26 13:29:36;;;;;;;22.73;13.13;;;7.90;74.90;;;;;;5093996;28;20451;-52
2022/01/26 13:35:12;;;;;;;17.95;9.73;;;7.80;75.90;;;;;;5093475;28;20048;-55
2022/01/26 13:38:18;;;;;;;17.55;9.48;;;7.90;75.90;;;;;;5107502;28;20075;-52
2022/01/26 13:43:35;;;;;;;18.55;11.05;;;7.90;75.70;;;;;;5093697;28;20122;-53
2022/01/26 13:51:21;;;;;;;14.63;8.60;;;7.90;75.50;;;;;;5096246;28;20047;-52
2022/01/26 13:56:30;;;;;;;13.45;9.30;;;7.80;76.10;;;;;;5110768;28;20092;-50
2022/01/26 13:59:07;;;;;;;15.55;8.60;;;7.80;76.10;;;;;;5112983;28;20059;-56
2022/01/26 14:01:36;;;;;;;18.63;8.50;;;7.70;75.60;;;;;;5114884;28;20043;-56
2022/01/26 14:04:05;;;;;;;16.20;8.20;;;7.70;76.10;;;;;;5115468;28;20047;-55
2022/01/26 14:06:32;;;;;;;17.25;8.13;;;7.60;76.30;;;;;;5114378;28;20031;-54
2022/01/26 14:08:59;;;;;;;17.05;8.55;;;7.60;76.70;;;;;;5114822;28;20036;-55
2022/01/26 14:11:26;;;;;;;16.52;8.38;;;7.60;76.60;;;;;;5113995;28;20403;-52
2022/01/26 14:13:56;;;;;;;16.27;8.07;;;7.60;76.90;;;;;;5112836;28;20093;-49
2022/01/26 14:16:24;;;;;;;17.20;8.60;;;7.60;77.10;;;;;;5112682;28;20036;-51
2022/01/26 14:21:30;;;;;;;17.77;7.82;;;7.60;76.60;;;;;;5112568;28;20050;-48
2022/01/26 14:26:26;;;;;;;16.23;7.45;;;7.60;76.50;;;;;;5112578;28;20054;-49
2022/01/26 14:28:53;;;;;;;14.23;7.65;;;7.50;76.10;;;;;;5111786;28;20126;-52
2022/01/26 14:31:29;;;;;;;15.40;8.00;;;7.50;76.50;;;;;;5112519;28;20145;-50
2022/01/26 14:36:47;;;;;;;14.82;8.13;;;7.40;76.00;;;;;;5112413;28;20044;-52
2022/01/26 14:39:46;;;;;;;18.25;8.32;;;7.40;76.40;;;;;;5116659;27;20047;-52
2022/01/26 14:51:08;;;;;;;21.52;9.90;;;7.30;77.50;;;;;;5059073;28;20102;-54
2022/01/26 15:10:05;;;;;;;18.98;9.73;;;7.40;77.80;;;;;;5115975;28;20118;-54
2022/01/26 15:40:17;;;;;;;25.08;14.02;;;7.30;79.10;;;;;;5114514;27;20047;-55
2022/01/26 15:50:50;;;;;;;18.05;12.35;;;7.50;79.20;;;;;;5095951;28;20080;-54
2022/01/26 16:19:42;;;;;;;23.80;14.35;;;7.50;78.70;;;;;;5113404;28;20079;-53
2022/01/26 16:20:51;;;;;;;21.30;13.82;;;7.50;78.60;;;;;;5114605;28;20316;-54
2022/01/26 21:38:26;;;;;;;23.67;14.15;;;5.50;87.10;;;;;;5065060;28;20412;-53
2022/01/26 21:40:53;;;;;;;22.10;14.98;;;5.50;87.50;;;;;;5040163;28;20084;-57
2022/01/26 21:43:20;;;;;;;25.17;14.48;;;5.50;87.20;;;;;;5029984;28;20046;-52
2022/01/26 21:45:46;;;;;;;22.95;13.60;;;5.60;87.00;;;;;;5033072;28;20125;-52
2022/01/26 21:48:14;;;;;;;23.55;14.50;;;5.70;86.40;;;;;;5027385;28;20107;-49
2022/01/26 21:50:41;;;;;;;21.92;14.20;;;5.90;85.80;;;;;;5026820;28;20042;-53
2022/01/26 21:53:08;;;;;;;25.85;14.20;;;5.90;85.50;;;;;;5024465;28;20044;-52
2022/01/26 21:55:35;;;;;;;26.13;14.65;;;6.00;85.40;;;;;;5024608;28;20051;-52
2022/01/26 21:58:01;;;;;;;22.27;14.07;;;6.10;85.30;;;;;;5025971;28;20033;-53
2022/01/26 22:00:28;;;;;;;21.20;13.75;;;6.10;85.00;;;;;;5026871;28;20080;-51
2022/01/26 22:02:55;;;;;;;22.27;14.15;;;6.10;84.90;;;;;;5025844;28;20034;-52
2022/01/26 22:05:23;;;;;;;21.45;13.77;;;6.10;85.30;;;;;;5025855;28;20038;-50
2022/01/26 22:07:49;;;;;;;20.92;13.98;;;6.00;85.40;;;;;;5024237;28;20034;-53
2022/01/26 22:10:16;;;;;;;21.08;13.82;;;6.00;85.60;;;;;;5026058;28;20449;-51
2022/01/26 22:12:43;;;;;;;21.45;13.88;;;6.00;85.80;;;;;;5026949;28;20040;-51
2022/01/26 22:15:10;;;;;;;19.05;12.65;;;6.00;86.00;;;;;;5025113;28;20061;-53
2022/01/26 22:17:37;;;;;;;21.55;13.20;;;6.00;86.10;;;;;;5025419;28;20044;-51
2022/01/26 22:20:04;;;;;;;20.15;12.82;;;6.00;86.20;;;;;;5025031;28;20171;-53
2022/01/26 22:22:31;;;;;;;19.50;12.70;;;6.00;86.40;;;;;;5029586;28;20145;-52
2022/01/26 22:24:58;;;;;;;22.83;12.27;;;6.00;86.50;;;;;;5025439;28;20045;-54
2022/01/26 22:27:30;;;;;;;16.70;11.23;;;6.00;86.50;;;;;;5026007;28;20050;-50
2022/01/26 22:30:01;;;;;;;17.33;11.95;;;6.00;86.50;;;;;;5024059;28;20113;-55
2022/01/26 22:32:27;;;;;;;20.58;13.55;;;6.00;86.60;;;;;;5024797;28;20121;-53
2022/01/26 22:34:54;;;;;;;20.30;11.50;;;6.10;86.70;;;;;;5026802;28;20041;-52
2022/01/26 22:37:25;;;;;;;16.63;10.07;;;6.00;86.80;;;;;;5026105;28;20077;-56
2022/01/26 22:39:52;;;;;;;20.10;10.50;;;6.10;86.90;;;;;;5025323;28;20485;-55
2022/01/26 22:42:19;;;;;;;18.75;10.57;;;6.10;87.00;;;;;;5024593;28;20052;-51
2022/01/26 22:44:46;;;;;;;15.15;10.07;;;6.10;87.00;;;;;;5028534;28;20515;-57
2022/01/26 22:47:13;;;;;;;14.98;9.98;;;6.10;87.10;;;;;;5024844;28;20154;-55
2022/01/26 22:49:40;;;;;;;16.98;10.38;;;6.10;87.20;;;;;;5011894;28;20048;-55
2022/01/26 22:52:06;;;;;;;17.23;10.60;;;6.10;87.30;;;;;;5015249;28;20100;-51
2022/01/26 22:54:34;;;;;;;15.30;9.75;;;6.10;87.30;;;;;;5012516;28;20125;-54
2022/01/26 22:57:01;;;;;;;16.33;10.63;;;6.10;87.40;;;;;;5015940;28;20041;-56
2022/01/26 22:59:28;;;;;;;19.90;10.73;;;6.20;87.40;;;;;;5011129;28;20431;-49
2022/01/26 23:05:29;;;;;;;16.50;10.48;;;6.20;87.40;;;;;;5008634;28;20061;-61
2022/01/26 23:07:43;;;;;;;15.18;10.05;;;6.20;87.40;;;;;;5009224;28;20128;-52
2022/01/26 23:10:10;;;;;;;14.85;9.75;;;6.30;87.50;;;;;;5011732;28;20041;-51
2022/01/26 23:12:37;;;;;;;17.98;10.55;;;6.30;87.60;;;;;;5013255;28;20572;-51
2022/01/26 23:15:04;;;;;;;15.40;9.25;;;6.30;87.60;;;;;;5011007;28;20100;-54
2022/01/26 23:17:31;;;;;;;16.40;10.40;;;6.30;87.60;;;;;;5008714;28;20093;-52
2022/01/26 23:20:17;;;;;;;17.98;10.23;;;6.30;87.60;;;;;;5011379;28;20105;-50
2022/01/26 23:22:45;;;;;;;16.95;9.82;;;6.40;87.70;;;;;;5011743;28;20034;-48
2022/01/26 23:25:45;;;;;;;17.23;10.43;;;6.30;87.80;;;;;;5009442;28;20057;-53
2022/01/26 23:28:25;;;;;;;14.93;9.55;;;6.40;87.80;;;;;;5010677;28;20034;-51
2022/01/26 23:36:25;;;;;;;15.75;10.18;;;6.40;88.20;;;;;;5013505;28;20072;-50
